Time;durP1;ratioP1;P1;durP2;ratioP2;P2;SDS_P1;SDS_P2;PMS_P1;PMS_P2;Temp;Humidity;BMP_temperature;BMP_pressure;BME280_temperature;BME280_humidity;BME280_pressure;Samples;Min_cycle;Max_cycle;Signal;HPM_P1;HPM_P2
2022/03/03 00:00:08;;;;;;;11.05;7.97;;;;;;;21.36;35.26;102326.13;5061762;28;20040;-67
2022/03/03 00:02:37;;;;;;;12.45;7.72;;;;;;;21.33;35.14;102321.16;5069351;28;20036;-67
2022/03/03 00:05:04;;;;;;;11.43;7.82;;;;;;;21.28;35.22;102316.31;5067735;28;20599;-67
2022/03/03 00:07:30;;;;;;;13.68;8.95;;;;;;;21.26;35.27;102320.94;5054971;28;20048;-67
2022/03/03 00:09:55;;;;;;;11.35;7.95;;;;;;;21.25;35.28;102316.63;5074440;28;20044;-67
2022/03/03 00:12:21;;;;;;;13.45;8.63;;;;;;;21.19;35.26;102305.78;5070695;28;20086;-67
2022/03/03 00:14:46;;;;;;;12.82;8.52;;;;;;;21.17;35.30;102307.72;5077013;28;20105;-67
2022/03/03 00:17:12;;;;;;;12.80;9.65;;;;;;;21.16;35.21;102308.72;5071856;28;20029;-67
2022/03/03 00:19:38;;;;;;;13.65;8.45;;;;;;;21.11;35.33;102314.47;5069183;28;20036;-67
2022/03/03 00:22:04;;;;;;;11.32;8.30;;;;;;;21.09;35.31;102309.34;5064898;28;20607;-67
2022/03/03 00:24:29;;;;;;;13.40;8.57;;;;;;;21.06;35.45;102314.13;5069686;28;20059;-67
2022/03/03 00:26:55;;;;;;;12.27;8.65;;;;;;;21.06;35.35;102320.25;5068398;28;20627;-67
2022/03/03 00:29:21;;;;;;;11.65;8.23;;;;;;;21.02;35.22;102312.75;5068878;28;20058;-67
2022/03/03 00:31:46;;;;;;;13.30;8.95;;;;;;;21.00;35.46;102315.53;5073961;28;20055;-67
2022/03/03 00:34:13;;;;;;;12.75;8.40;;;;;;;20.99;35.31;102307.75;5072263;28;20047;-67
2022/03/03 00:36:40;;;;;;;13.80;8.57;;;;;;;20.96;35.23;102300.09;5070500;28;20036;-67
2022/03/03 00:39:05;;;;;;;11.20;7.80;;;;;;;20.95;35.46;102307.22;5069000;28;20116;-67
2022/03/03 00:41:31;;;;;;;13.52;9.23;;;;;;;20.94;35.41;102302.91;5074865;28;20079;-67
2022/03/03 00:43:56;;;;;;;12.98;9.25;;;;;;;20.90;35.24;102298.06;5075455;28;20043;-67
2022/03/03 00:46:25;;;;;;;13.35;9.25;;;;;;;20.75;35.29;102272.13;5072440;28;20072;-67
2022/03/03 00:48:51;;;;;;;12.48;8.63;;;;;;;20.82;35.20;102288.22;5074163;28;20063;-67
2022/03/03 00:51:18;;;;;;;12.02;8.32;;;;;;;20.82;35.49;102288.22;5072563;28;20029;-67
2022/03/03 00:53:43;;;;;;;12.82;9.15;;;;;;;20.78;35.35;102279.75;5072017;28;20041;-67
2022/03/03 00:56:09;;;;;;;12.35;8.68;;;;;;;20.79;35.40;102278.78;5068178;28;20035;-67
2022/03/03 00:58:34;;;;;;;13.23;8.98;;;;;;;20.77;35.35;102277.25;5066531;28;20040;-67
2022/03/03 01:01:01;;;;;;;14.02;8.73;;;;;;;20.74;35.36;102277.56;5064523;28;20043;-67
2022/03/03 01:03:28;;;;;;;13.63;8.95;;;;;;;20.71;35.29;102272.56;5074490;28;20106;-67
2022/03/03 01:05:53;;;;;;;13.52;8.32;;;;;;;20.71;35.38;102283.16;5051281;28;20036;-67
2022/03/03 01:08:19;;;;;;;12.63;8.35;;;;;;;20.67;35.35;102274.69;5070989;28;20109;-67
2022/03/03 01:10:45;;;;;;;12.25;8.52;;;;;;;20.64;35.38;102271.50;5076523;28;20821;-67
2022/03/03 01:13:10;;;;;;;13.98;8.77;;;;;;;20.65;35.21;102273.19;5069222;28;20714;-67
2022/03/03 01:15:37;;;;;;;12.40;8.15;;;;;;;20.60;35.33;102265.69;5066514;28;20180;-67
2022/03/03 01:18:02;;;;;;;14.93;8.95;;;;;;;20.62;35.34;102263.72;5065576;28;20051;-68
2022/03/03 01:20:28;;;;;;;13.52;9.18;;;;;;;20.60;35.41;102265.69;5074373;28;20048;-67
2022/03/03 01:22:54;;;;;;;13.63;8.95;;;;;;;20.59;35.35;102255.25;5071464;28;20047;-67
2022/03/03 01:25:20;;;;;;;13.10;8.77;;;;;;;20.58;35.40;102262.34;5072546;28;20036;-68
2022/03/03 01:27:45;;;;;;;12.38;8.93;;;;;;;20.55;35.35;102259.19;5064596;28;20047;-69
2022/03/03 01:30:12;;;;;;;15.50;9.40;;;;;;;20.54;35.28;102257.50;5073835;28;20040;-68
2022/03/03 01:32:38;;;;;;;13.32;8.63;;;;;;;20.53;35.35;102264.63;5067161;28;20059;-69
2022/03/03 01:35:04;;;;;;;12.85;8.68;;;;;;;20.49;35.38;102271.19;5071005;28;20027;-68
2022/03/03 01:37:29;;;;;;;11.15;8.35;;;;;;;20.44;35.39;102265.50;5071973;28;20036;-69
2022/03/03 01:39:55;;;;;;;12.88;8.88;;;;;;;20.44;35.36;102265.50;5071132;28;20075;-67
2022/03/03 01:42:21;;;;;;;12.73;8.38;;;;;;;20.43;35.39;102259.38;5072322;28;20055;-69
2022/03/03 01:44:47;;;;;;;12.43;8.85;;;;;;;20.41;35.47;102263.16;5068656;28;20756;-69
2022/03/03 01:47:24;;;;;;;13.88;9.10;;;;;;;20.40;35.27;102264.13;5075518;28;20114;-69
2022/03/03 01:49:52;;;;;;;12.85;8.73;;;;;;;20.38;35.41;102264.25;5067384;28;20109;-69
2022/03/03 01:52:19;;;;;;;13.82;9.02;;;;;;;20.37;35.62;102265.25;5071708;28;20048;-68
2022/03/03 01:54:44;;;;;;;11.98;8.48;;;;;;;20.31;35.24;102247.34;5071240;28;20547;-69
2022/03/03 01:57:10;;;;;;;12.27;8.60;;;;;;;20.37;35.40;102259.94;5068734;28;20047;-68
2022/03/03 01:59:37;;;;;;;13.88;9.32;;;;;;;20.33;35.37;102247.19;5049272;28;20044;-68
2022/03/03 02:02:05;;;;;;;12.70;8.80;;;;;;;20.30;35.33;102250.97;5064244;28;20028;-68
2022/03/03 02:04:31;;;;;;;12.18;8.65;;;;;;;20.26;35.40;102240.78;5069099;28;20028;-69
2022/03/03 02:06:57;;;;;;;12.88;9.25;;;;;;;20.28;35.39;102244.13;5065180;28;20027;-69
2022/03/03 02:09:23;;;;;;;13.10;8.57;;;;;;;20.25;35.47;102244.44;5072119;28;20048;-69
2022/03/03 02:11:49;;;;;;;13.38;9.15;;;;;;;20.24;35.29;102238.31;5063818;28;20040;-68
2022/03/03 02:14:15;;;;;;;14.05;9.32;;;;;;;20.23;35.39;102232.19;5070038;28;20118;-68
2022/03/03 02:16:40;;;;;;;12.60;8.93;;;;;;;20.07;35.28;102208.19;5067790;28;20097;-69
2022/03/03 02:19:06;;;;;;;14.05;8.68;;;;;;;20.19;35.37;102225.53;5071591;28;20664;-69
2022/03/03 02:21:32;;;;;;;13.15;8.13;;;;;;;20.16;35.42;102225.00;5069508;28;20036;-69
2022/03/03 02:23:58;;;;;;;12.40;8.48;;;;;;;20.16;35.51;102206.50;5054689;28;20050;-69
2022/03/03 02:26:24;;;;;;;12.35;8.80;;;;;;;20.15;35.33;102210.94;5069649;28;20393;-69
2022/03/03 02:28:52;;;;;;;13.52;9.15;;;;;;;20.12;35.27;102207.78;5067586;28;20035;-69
2022/03/03 02:31:18;;;;;;;13.18;8.98;;;;;;;20.06;35.46;102206.53;5068285;28;20044;-69
2022/03/03 02:33:44;;;;;;;13.98;8.43;;;;;;;20.13;35.30;102220.00;5063087;28;20663;-69
2022/03/03 02:36:26;;;;;;;13.30;8.85;;;;;;;20.10;35.35;102217.63;5069047;28;20040;-68
2022/03/03 02:38:54;;;;;;;12.20;8.52;;;;;;;20.08;35.43;102219.59;5063780;28;20051;-68
2022/03/03 02:41:19;;;;;;;13.20;9.15;;;;;;;20.06;35.26;102208.34;5049221;28;20044;-69
2022/03/03 02:43:45;;;;;;;13.02;8.13;;;;;;;20.06;35.43;102211.81;5066566;28;20031;-69
2022/03/03 02:46:11;;;;;;;13.68;9.30;;;;;;;20.04;35.26;102208.50;5049736;28;20052;-68
2022/03/03 02:48:38;;;;;;;12.43;8.25;;;;;;;20.03;35.51;102209.47;5071965;28;20032;-68
2022/03/03 02:51:04;;;;;;;11.45;8.32;;;;;;;20.01;35.37;102197.38;5068311;28;20044;-68
2022/03/03 02:53:30;;;;;;;12.68;8.93;;;;;;;20.00;35.31;102196.56;5071338;28;20043;-69
2022/03/03 02:55:56;;;;;;;12.18;8.35;;;;;;;19.99;35.41;102191.41;5062618;28;20044;-68
2022/03/03 02:58:21;;;;;;;12.80;8.82;;;;;;;19.96;35.40;102192.53;5051768;28;20573;-68
2022/03/03 03:00:48;;;;;;;12.63;8.48;;;;;;;19.99;35.33;102188.78;5064889;28;20039;-68
2022/03/03 03:03:15;;;;;;;11.40;8.60;;;;;;;19.96;35.37;102189.06;5070734;28;20028;-68
2022/03/03 03:05:41;;;;;;;12.52;8.73;;;;;;;19.94;35.29;102193.69;5067499;28;20117;-68
2022/03/03 03:08:07;;;;;;;12.48;8.68;;;;;;;19.94;35.32;102197.16;5067554;28;20113;-69
2022/03/03 03:10:33;;;;;;;12.40;8.35;;;;;;;19.90;35.32;102188.66;5071726;28;20047;-69
2022/03/03 03:12:59;;;;;;;12.45;8.70;;;;;;;19.90;35.58;102193.13;5065338;28;20043;-69
2022/03/03 03:15:24;;;;;;;10.07;7.60;;;;;;;19.88;35.37;102198.56;5073445;28;20139;-69
2022/03/03 03:17:50;;;;;;;12.70;8.73;;;;;;;19.87;35.32;102201.34;5067915;28;20059;-68
2022/03/03 03:20:16;;;;;;;12.35;8.68;;;;;;;19.87;35.46;102210.09;5070964;28;20040;-69
2022/03/03 03:22:42;;;;;;;11.48;8.07;;;;;;;19.87;35.35;102207.47;5069481;28;20146;-68
2022/03/03 03:25:12;;;;;;;13.23;8.63;;;;;;;19.88;35.38;102205.66;5068053;28;20785;-68
2022/03/03 03:27:40;;;;;;;12.65;9.13;;;;;;;19.85;35.47;102212.06;5070255;28;21759;-68
2022/03/03 03:30:08;;;;;;;12.68;9.10;;;;;;;19.83;35.49;102208.75;5069652;28;20032;-69
2022/03/03 03:32:33;;;;;;;12.52;8.65;;;;;;;19.84;35.41;102209.56;5071440;28;20032;-68
2022/03/03 03:34:59;;;;;;;11.57;8.00;;;;;;;19.83;35.37;102207.91;5070271;28;20534;-69
2022/03/03 03:37:25;;;;;;;10.95;8.02;;;;;;;19.81;35.53;102208.06;5069932;28;20040;-68
2022/03/03 03:39:50;;;;;;;12.15;8.50;;;;;;;19.81;35.50;102212.50;5065472;28;20585;-69
2022/03/03 03:42:16;;;;;;;11.25;7.75;;;;;;;19.80;35.42;102216.97;5070880;28;20035;-69
2022/03/03 03:44:41;;;;;;;12.57;8.52;;;;;;;19.76;35.64;102222.69;5065113;28;20047;-68
2022/03/03 03:47:09;;;;;;;14.43;8.82;;;;;;;19.77;35.48;102222.56;5069795;28;20028;-69
2022/03/03 03:49:35;;;;;;;11.65;8.40;;;;;;;19.76;35.41;102220.06;5073350;28;20044;-68
2022/03/03 03:52:01;;;;;;;11.52;8.10;;;;;;;19.72;35.36;102214.22;5066005;28;20032;-68
2022/03/03 03:54:26;;;;;;;11.23;8.20;;;;;;;19.74;35.52;102217.53;5074565;28;20040;-68
2022/03/03 03:56:52;;;;;;;12.40;8.38;;;;;;;19.73;35.53;102207.94;5064538;28;20040;-69
2022/03/03 03:59:18;;;;;;;11.60;7.72;;;;;;;19.72;35.55;102213.38;5069310;28;20032;-68
2022/03/03 04:01:44;;;;;;;12.23;8.43;;;;;;;19.58;35.36;102185.63;5068296;28;20090;-69
2022/03/03 04:04:09;;;;;;;10.23;7.90;;;;;;;19.71;35.61;102201.13;5068981;28;20749;-69
2022/03/03 04:06:36;;;;;;;12.38;8.43;;;;;;;19.72;35.53;102208.09;5073395;28;20035;-68
2022/03/03 04:09:03;;;;;;;13.93;8.80;;;;;;;19.68;35.38;102199.63;5065420;28;20048;-68
2022/03/03 04:11:29;;;;;;;12.43;8.38;;;;;;;19.66;35.61;102203.41;5072632;28;20059;-69
2022/03/03 04:13:56;;;;;;;12.50;8.52;;;;;;;19.65;35.48;102194.63;5051136;28;20043;-67
2022/03/03 04:16:23;;;;;;;11.95;8.18;;;;;;;19.57;35.56;102183.97;5067424;28;20052;-68
2022/03/03 04:18:49;;;;;;;10.32;7.80;;;;;;;19.58;35.67;102186.47;5048787;28;20089;-68
2022/03/03 04:21:14;;;;;;;11.32;8.13;;;;;;;19.61;35.45;102195.91;5064742;28;20129;-68
2022/03/03 04:23:40;;;;;;;12.77;8.38;;;;;;;19.53;35.54;102175.44;5065492;28;20082;-69
2022/03/03 04:26:05;;;;;;;11.73;8.40;;;;;;;19.58;35.52;102189.09;5066267;28;20066;-68
2022/03/03 04:28:31;;;;;;;11.63;8.48;;;;;;;19.60;35.59;102187.16;5065526;28;20343;-69
2022/03/03 04:30:57;;;;;;;11.18;7.65;;;;;;;19.58;35.62;102180.34;5063388;28;20075;-66
2022/03/03 04:33:22;;;;;;;11.20;8.00;;;;;;;19.56;35.61;102177.81;5061426;28;20035;-69
2022/03/03 04:35:48;;;;;;;14.35;8.75;;;;;;;19.57;35.43;102173.41;5067339;28;20044;-69
2022/03/03 04:38:14;;;;;;;11.32;8.00;;;;;;;19.55;35.57;102164.75;5052377;28;20032;-67
2022/03/03 04:40:40;;;;;;;14.05;8.57;;;;;;;19.38;35.60;102144.34;5065124;28;20050;-68
2022/03/03 04:43:05;;;;;;;12.02;8.23;;;;;;;19.53;35.50;102164.03;5054886;28;20035;-68
2022/03/03 04:45:31;;;;;;;11.32;8.25;;;;;;;19.52;35.58;102159.75;5071873;28;20041;-68
2022/03/03 04:47:57;;;;;;;14.60;8.90;;;;;;;19.50;35.44;102148.50;5066912;28;20060;-68
2022/03/03 04:50:22;;;;;;;11.30;8.02;;;;;;;19.50;35.53;102151.97;5064170;28;20138;-68
2022/03/03 04:52:48;;;;;;;12.25;8.38;;;;;;;19.46;35.48;102149.75;5065117;28;20063;-68
2022/03/03 04:55:13;;;;;;;13.02;8.57;;;;;;;19.42;35.50;102146.59;5052677;28;20741;-68
2022/03/03 04:57:39;;;;;;;13.05;8.35;;;;;;;19.44;35.59;102155.19;5052783;28;20055;-68
2022/03/03 05:00:06;;;;;;;11.45;8.18;;;;;;;19.44;35.44;102155.19;5074605;28;20123;-68
2022/03/03 05:02:31;;;;;;;13.50;8.38;;;;;;;19.41;35.47;102149.38;5070853;28;20067;-68
2022/03/03 05:04:57;;;;;;;12.75;8.05;;;;;;;19.44;35.62;102155.19;5070890;28;20509;-68
2022/03/03 05:07:23;;;;;;;11.57;8.55;;;;;;;19.41;35.60;102152.84;5071936;28;20064;-68
2022/03/03 05:09:48;;;;;;;11.15;8.10;;;;;;;19.43;35.38;102152.72;5068612;28;20028;-68
2022/03/03 05:12:14;;;;;;;10.52;8.18;;;;;;;19.42;35.62;102148.41;5070996;28;20482;-68
2022/03/03 05:14:39;;;;;;;11.00;7.75;;;;;;;19.39;35.49;102146.88;5070376;28;20051;-68
2022/03/03 05:17:05;;;;;;;11.55;7.90;;;;;;;19.38;35.39;102147.00;5070630;28;20041;-68
2022/03/03 05:19:31;;;;;;;10.95;7.43;;;;;;;19.41;35.42;102149.38;5067885;28;20062;-68
2022/03/03 05:21:57;;;;;;;11.95;8.43;;;;;;;19.59;35.26;102140.56;5052438;28;20147;-68
2022/03/03 05:24:23;;;;;;;11.65;8.30;;;;;;;20.05;34.89;102140.56;5069609;28;20048;-68
2022/03/03 05:26:48;;;;;;;11.40;7.13;;;;;;;20.69;34.08;102140.38;5072051;28;20190;-68
2022/03/03 05:29:14;;;;;;;10.77;7.43;;;;;;;21.36;33.18;102136.22;5073764;28;20584;-68
2022/03/03 05:31:41;;;;;;;9.43;6.80;;;;;;;21.59;32.43;102111.78;5049992;28;20059;-68
2022/03/03 05:34:07;;;;;;;10.20;7.55;;;;;;;22.01;31.98;102135.59;5057303;28;20048;-68
2022/03/03 05:36:41;;;;;;;9.27;7.28;;;;;;;22.33;31.48;102137.50;5068594;28;20032;-68
2022/03/03 05:39:08;;;;;;;10.88;7.32;;;;;;;22.54;31.48;102135.19;5071736;28;20032;-68
2022/03/03 05:41:34;;;;;;;8.77;6.75;;;;;;;22.43;31.60;102135.50;5070600;28;20116;-68
2022/03/03 05:44:00;;;;;;;9.68;6.88;;;;;;;22.21;32.09;102141.47;5069275;28;20499;-68
2022/03/03 05:46:26;;;;;;;11.00;7.75;;;;;;;21.98;32.22;102135.94;5070725;28;20028;-68
2022/03/03 05:48:52;;;;;;;9.40;6.53;;;;;;;21.81;32.89;102145.66;5066736;28;20072;-68
2022/03/03 05:51:19;;;;;;;8.95;6.55;;;;;;;21.62;33.01;102149.41;5073504;28;20066;-68
2022/03/03 05:53:45;;;;;;;11.13;7.43;;;;;;;21.42;33.32;102135.56;5069713;28;20053;-68
2022/03/03 05:56:14;;;;;;;9.80;7.20;;;;;;;21.37;33.48;102159.06;5066496;28;20630;-68
2022/03/03 05:58:46;;;;;;;9.95;7.43;;;;;;;21.29;33.74;102152.88;5066199;28;20110;-68
2022/03/03 06:01:13;;;;;;;9.45;6.60;;;;;;;21.48;33.50;102155.28;5069222;28;20044;-69
2022/03/03 06:03:40;;;;;;;9.70;7.10;;;;;;;21.86;32.75;102153.13;5066459;28;20036;-68
2022/03/03 06:06:15;;;;;;;10.68;7.38;;;;;;;21.95;32.41;102160.94;5068972;28;20032;-68
2022/03/03 06:08:53;;;;;;;9.05;7.18;;;;;;;22.21;32.07;102162.69;5068712;28;20095;-68
2022/03/03 06:11:21;;;;;;;10.75;7.03;;;;;;;22.30;32.23;102161.72;5069310;28;20475;-68
2022/03/03 06:13:47;;;;;;;9.75;6.85;;;;;;;22.50;31.73;102168.38;5052818;28;20047;-68
2022/03/03 06:16:21;;;;;;;9.23;6.40;;;;;;;22.57;31.91;102161.41;5072188;28;20063;-68
2022/03/03 06:18:49;;;;;;;9.55;7.20;;;;;;;22.51;31.88;102169.19;5068772;28;20036;-68
2022/03/03 06:21:17;;;;;;;10.52;6.90;;;;;;;22.37;32.14;102167.19;5069879;28;20051;-68
2022/03/03 06:23:44;;;;;;;9.68;6.43;;;;;;;22.16;32.61;102173.78;5071195;28;20040;-68
2022/03/03 06:26:13;;;;;;;10.30;6.85;;;;;;;21.98;32.39;102176.53;5066076;28;20042;-68
2022/03/03 06:28:39;;;;;;;9.18;6.30;;;;;;;21.87;33.01;102173.34;5072190;28;20040;-68
2022/03/03 06:31:06;;;;;;;9.70;6.80;;;;;;;21.70;33.09;102161.84;5070543;28;20146;-68
2022/03/03 06:33:33;;;;;;;8.73;6.75;;;;;;;21.64;33.33;102178.41;5068113;28;20708;-68
2022/03/03 06:35:59;;;;;;;9.95;7.20;;;;;;;21.58;33.39;102181.69;5065746;28;20076;-68
2022/03/03 06:38:25;;;;;;;9.15;6.50;;;;;;;21.51;33.42;102178.81;5055121;28;20036;-68
2022/03/03 06:40:53;;;;;;;8.75;6.63;;;;;;;21.44;33.50;102175.16;5063696;28;20044;-68
2022/03/03 06:43:18;;;;;;;9.57;6.32;;;;;;;21.58;33.59;102182.53;5073146;28;20477;-68
2022/03/03 06:45:44;;;;;;;9.73;6.90;;;;;;;21.83;33.17;102178.13;5069793;28;20048;-68
2022/03/03 06:48:10;;;;;;;9.65;6.63;;;;;;;22.08;32.61;102180.88;5048681;28;20183;-67
2022/03/03 06:50:38;;;;;;;10.75;7.05;;;;;;;22.40;32.27;102188.09;5070159;28;20054;-68
2022/03/03 06:53:05;;;;;;;9.93;7.25;;;;;;;22.39;32.21;102187.25;5065826;28;20035;-68
2022/03/03 06:55:30;;;;;;;10.07;7.00;;;;;;;22.21;32.17;102186.56;5064393;28;20036;-68
2022/03/03 06:57:57;;;;;;;9.77;6.72;;;;;;;22.06;32.50;102189.00;5071047;28;20051;-68
2022/03/03 07:00:26;;;;;;;8.13;6.68;;;;;;;21.95;32.62;102186.66;5058700;28;20079;-68
2022/03/03 07:02:53;;;;;;;9.77;6.93;;;;;;;21.83;32.82;102177.31;5050863;28;20028;-68
2022/03/03 07:05:20;;;;;;;10.05;7.00;;;;;;;21.71;33.06;102185.53;5072966;28;20043;-68
2022/03/03 07:07:47;;;;;;;8.15;6.05;;;;;;;21.70;33.12;102188.34;5056125;28;20037;-68
2022/03/03 07:10:14;;;;;;;10.07;7.03;;;;;;;21.56;33.31;102191.63;5070985;28;20043;-68
2022/03/03 07:12:41;;;;;;;10.23;7.15;;;;;;;21.42;33.49;102193.03;5067024;28;20028;-68
2022/03/03 07:15:08;;;;;;;10.57;7.18;;;;;;;21.34;33.74;102191.16;5070395;28;20060;-68
2022/03/03 07:17:55;;;;;;;9.35;6.65;;;;;;;21.26;33.68;102191.13;5068720;28;20036;-68
2022/03/03 07:20:40;;;;;;;9.25;6.93;;;;;;;21.20;33.80;102191.72;5069212;28;20050;-69
2022/03/03 07:23:36;;;;;;;10.95;7.22;;;;;;;21.12;33.97;102204.91;5073404;28;20028;-68
2022/03/03 07:26:04;;;;;;;10.15;7.03;;;;;;;21.08;34.03;102206.19;5075816;28;20621;-68
2022/03/03 07:28:32;;;;;;;10.43;7.28;;;;;;;21.06;33.98;102198.41;5070755;28;20036;-67
2022/03/03 07:31:03;;;;;;;11.02;7.22;;;;;;;21.13;33.83;102198.63;5065715;28;20050;-68
2022/03/03 07:33:47;;;;;;;10.02;6.90;;;;;;;21.43;33.31;102197.34;5069855;28;20055;-68
2022/03/03 07:36:18;;;;;;;9.23;6.88;;;;;;;21.58;33.03;102200.25;5067373;28;20521;-69
2022/03/03 07:39:00;;;;;;;10.05;6.75;;;;;;;21.58;33.15;102197.59;5064811;28;20052;-68
2022/03/03 07:41:27;;;;;;;10.07;7.05;;;;;;;21.48;33.09;102192.41;5053395;28;20039;-68
2022/03/03 07:43:53;;;;;;;8.93;6.90;;;;;;;21.43;33.36;102197.34;5069555;28;20055;-68
2022/03/03 07:46:20;;;;;;;11.38;6.85;;;;;;;21.31;33.50;102198.59;5067382;28;20474;-69
2022/03/03 07:48:46;;;;;;;9.50;7.15;;;;;;;21.28;33.61;102212.16;5065520;28;20039;-70
2022/03/03 07:51:13;;;;;;;10.52;6.82;;;;;;;21.24;33.88;102208.13;5063848;28;20041;-70
2022/03/03 07:53:39;;;;;;;9.48;6.70;;;;;;;21.17;33.98;102199.94;5068495;28;20430;-70
2022/03/03 07:56:07;;;;;;;10.45;7.35;;;;;;;21.18;34.09;102206.09;5065480;28;20487;-70
2022/03/03 07:58:38;;;;;;;11.20;7.03;;;;;;;20.39;35.43;102212.19;5062753;28;20043;-70
2022/03/03 08:01:05;;;;;;;8.63;6.32;;;;;;;20.05;36.28;102222.53;5065716;28;20031;-70
2022/03/03 08:03:31;;;;;;;9.25;6.82;;;;;;;19.94;36.55;102222.75;5065568;28;20096;-69
2022/03/03 08:05:58;;;;;;;9.07;6.60;;;;;;;19.94;36.57;102214.84;5047684;28;20036;-70
2022/03/03 08:08:26;;;;;;;9.75;6.13;;;;;;;20.00;36.65;102215.06;5047006;28;20075;-70
2022/03/03 08:11:03;;;;;;;9.50;6.32;;;;;;;20.01;36.76;102211.44;5063926;28;20036;-70
2022/03/03 08:13:30;;;;;;;9.05;6.05;;;;;;;19.94;36.56;102198.97;5064873;28;20496;-70
2022/03/03 08:15:57;;;;;;;8.35;6.30;;;;;;;20.04;36.70;102205.03;5069516;28;20048;-69
2022/03/03 08:18:28;;;;;;;9.05;6.10;;;;;;;20.06;36.63;102203.06;5059832;28;20036;-72
2022/03/03 08:20:56;;;;;;;7.78;5.68;;;;;;;20.12;36.77;102215.72;5065675;28;20024;-70
2022/03/03 08:23:25;;;;;;;8.50;5.72;;;;;;;20.14;36.61;102213.75;5065442;28;20194;-70
2022/03/03 08:25:53;;;;;;;9.32;6.15;;;;;;;20.16;36.49;102207.31;5051257;28;20051;-70
2022/03/03 08:28:22;;;;;;;8.20;6.25;;;;;;;20.19;36.49;102206.19;5075687;28;20032;-70
2022/03/03 08:30:51;;;;;;;7.07;5.80;;;;;;;20.19;36.48;102209.66;5073756;28;20413;-70
2022/03/03 08:33:25;;;;;;;8.27;6.18;;;;;;;20.17;36.63;102222.22;5078639;28;20040;-71
2022/03/03 08:35:56;;;;;;;8.35;6.03;;;;;;;20.16;36.68;102217.06;5072549;28;20547;-69
2022/03/03 08:38:24;;;;;;;9.43;5.75;;;;;;;20.15;36.80;102221.53;5070402;28;20548;-70
2022/03/03 08:40:55;;;;;;;8.02;5.57;;;;;;;20.10;36.72;102220.28;5074829;28;21455;-70
2022/03/03 08:43:24;;;;;;;9.25;5.97;;;;;;;20.08;36.86;102214.31;5075505;28;20044;-70
2022/03/03 08:45:50;;;;;;;7.67;5.67;;;;;;;20.07;36.83;102212.66;5053589;28;20043;-70
2022/03/03 08:48:19;;;;;;;6.70;5.45;;;;;;;20.02;36.84;102210.47;5072098;28;20082;-71
2022/03/03 08:50:48;;;;;;;7.80;5.93;;;;;;;20.00;37.11;102212.41;5055885;28;20112;-70
2022/03/03 08:53:14;;;;;;;7.97;5.80;;;;;;;19.99;37.09;102217.84;5077958;28;20036;-70
2022/03/03 08:55:40;;;;;;;7.00;5.20;;;;;;;19.92;37.12;102218.41;5074952;28;20104;-70
2022/03/03 08:58:06;;;;;;;9.23;6.28;;;;;;;19.92;37.16;102225.53;5074243;28;20084;-70
2022/03/03 09:00:32;;;;;;;9.18;6.40;;;;;;;19.94;37.23;102226.25;5072116;28;20417;-70
2022/03/03 09:02:59;;;;;;;8.68;5.72;;;;;;;20.07;36.91;102229.34;5075863;28;20036;-69
2022/03/03 09:05:25;;;;;;;8.00;6.28;;;;;;;20.15;36.79;102228.63;5071900;28;20032;-70
2022/03/03 09:07:50;;;;;;;7.78;6.15;;;;;;;20.18;36.66;102220.41;5075599;28;20047;-69
2022/03/03 09:10:17;;;;;;;7.80;5.78;;;;;;;20.17;36.65;102229.31;5079938;28;20036;-70
2022/03/03 09:12:43;;;;;;;8.43;5.40;;;;;;;20.30;36.84;102228.97;5075606;28;20159;-70
2022/03/03 09:15:09;;;;;;;7.47;5.68;;;;;;;20.29;36.62;102221.97;5072316;28;20183;-70
2022/03/03 09:17:36;;;;;;;7.55;5.60;;;;;;;20.30;36.49;102224.50;5073474;28;20039;-70
2022/03/03 09:20:05;;;;;;;7.88;5.32;;;;;;;20.30;36.53;102221.84;5076558;28;20063;-70
2022/03/03 09:22:32;;;;;;;7.45;5.93;;;;;;;20.31;36.56;102226.16;5065395;28;20498;-70
2022/03/03 09:24:58;;;;;;;9.00;6.05;;;;;;;20.30;36.56;102215.75;5079015;28;20036;-70
2022/03/03 09:27:23;;;;;;;6.38;5.38;;;;;;;20.24;36.64;102211.84;5058610;28;20490;-69
2022/03/03 09:29:51;;;;;;;7.15;5.30;;;;;;;20.25;36.69;102210.88;5076788;28;20302;-70
2022/03/03 09:32:17;;;;;;;6.65;5.35;;;;;;;20.23;36.75;102218.13;5058042;28;20421;-70
2022/03/03 09:34:45;;;;;;;7.00;5.40;;;;;;;20.22;36.77;102212.00;5073292;28;20646;-70
2022/03/03 09:37:12;;;;;;;8.23;5.43;;;;;;;20.21;36.84;102209.50;5075130;28;20072;-69
2022/03/03 09:39:37;;;;;;;7.15;5.68;;;;;;;20.16;36.76;102209.13;5071515;28;20039;-70
2022/03/03 09:42:03;;;;;;;7.15;5.07;;;;;;;20.26;36.73;102209.06;5076858;28;20058;-71
2022/03/03 09:44:29;;;;;;;7.18;5.22;;;;;;;20.31;36.53;102209.47;5072265;28;20110;-70
2022/03/03 09:46:55;;;;;;;6.95;5.93;;;;;;;20.26;36.73;102203.75;5078168;28;20036;-70
2022/03/03 09:49:21;;;;;;;7.32;5.38;;;;;;;20.21;36.67;102205.06;5073814;28;20121;-70
2022/03/03 09:51:50;;;;;;;7.53;5.13;;;;;;;20.16;36.80;102196.75;5078192;28;20055;-70
2022/03/03 09:54:17;;;;;;;6.22;4.68;;;;;;;20.23;36.87;102191.69;5076024;28;20360;-70
2022/03/03 09:56:42;;;;;;;7.05;5.68;;;;;;;20.25;36.86;102188.88;5073971;28;20422;-70
2022/03/03 09:59:08;;;;;;;7.68;5.70;;;;;;;20.29;36.72;102182.31;5067565;28;20042;-70
2022/03/03 10:01:35;;;;;;;8.35;5.68;;;;;;;20.29;36.87;102177.00;5074799;28;20533;-70
2022/03/03 10:04:21;;;;;;;6.20;5.18;;;;;;;20.33;36.65;102168.66;5076771;28;20093;-69
2022/03/03 10:06:48;;;;;;;6.53;5.03;;;;;;;20.33;36.74;102183.69;5069778;28;20036;-70
2022/03/03 10:09:16;;;;;;;6.30;4.60;;;;;;;20.32;36.74;102176.75;5083375;28;20153;-70
2022/03/03 10:11:47;;;;;;;7.53;5.43;;;;;;;20.32;36.74;102184.66;5075231;28;20533;-70
2022/03/03 10:14:13;;;;;;;7.28;5.32;;;;;;;20.22;36.91;102168.84;5082607;28;20094;-70
2022/03/03 10:16:47;;;;;;;7.10;5.32;;;;;;;20.30;36.86;102189.28;5072299;28;20063;-70
2022/03/03 10:19:13;;;;;;;6.45;5.35;;;;;;;20.25;36.89;102176.47;5079056;28;20848;-70
2022/03/03 10:21:39;;;;;;;6.80;4.95;;;;;;;20.20;37.06;102191.97;5075191;28;20039;-70
2022/03/03 10:24:31;;;;;;;7.45;5.53;;;;;;;20.18;37.05;102186.00;5077494;28;20554;-70
2022/03/03 10:27:00;;;;;;;6.25;5.30;;;;;;;20.06;36.95;102158.94;5069761;28;20162;-70
2022/03/03 10:29:27;;;;;;;6.35;4.63;;;;;;;20.12;37.10;102190.09;5058174;28;20039;-70
2022/03/03 10:31:55;;;;;;;7.82;5.75;;;;;;;20.11;37.08;102192.88;5069509;28;20490;-71
2022/03/03 10:34:34;;;;;;;8.52;5.50;;;;;;;20.12;37.06;102192.75;5075487;28;20036;-73
2022/03/03 10:37:08;;;;;;;6.25;5.10;;;;;;;20.06;36.97;102193.31;5069131;28;20405;-70
2022/03/03 10:39:41;;;;;;;6.60;5.03;;;;;;;20.03;37.19;102190.13;5071295;28;20040;-70
2022/03/03 10:42:21;;;;;;;5.97;4.63;;;;;;;20.11;37.07;102190.25;5073276;28;20078;-70
2022/03/03 10:44:49;;;;;;;6.45;4.85;;;;;;;20.18;36.97;102184.19;5076922;28;20421;-70
2022/03/03 10:47:21;;;;;;;7.57;5.50;;;;;;;20.17;36.97;102190.47;5065839;28;20032;-70
2022/03/03 10:49:53;;;;;;;6.97;4.88;;;;;;;20.18;37.02;102193.94;5074159;28;20048;-70
2022/03/03 10:52:22;;;;;;;6.45;4.85;;;;;;;20.16;36.97;102188.81;5073335;28;20037;-70
2022/03/03 10:54:52;;;;;;;6.18;4.72;;;;;;;20.16;37.04;102195.91;5071809;28;20060;-70
2022/03/03 10:57:33;;;;;;;;;;;;;;;20.17;36.95;102206.34;5077942;28;20035;-70
2022/03/03 11:00:06;;;;;;;6.40;4.72;;;;;;;20.13;37.04;102204.16;5070406;28;21189;-71
2022/03/03 11:02:33;;;;;;;6.85;5.20;;;;;;;20.13;37.12;102202.34;5076094;28;20541;-71
2022/03/03 11:04:59;;;;;;;15.40;8.35;;;;;;;20.06;36.57;102203.06;5070083;28;20024;-70
2022/03/03 11:07:25;;;;;;;11.82;7.88;;;;;;;20.08;36.56;102206.38;5078964;28;20048;-69
2022/03/03 11:09:51;;;;;;;11.13;7.43;;;;;;;20.17;36.78;102205.50;5071224;28;20188;-67
2022/03/03 11:12:19;;;;;;;10.57;7.22;;;;;;;20.15;36.90;102204.81;5073900;28;20068;-66
2022/03/03 11:14:45;;;;;;;10.80;7.55;;;;;;;20.29;36.75;102208.75;5072383;28;20147;-68
2022/03/03 11:17:11;;;;;;;10.35;7.38;;;;;;;20.21;36.54;102201.56;5074667;28;20507;-68
2022/03/03 11:19:39;;;;;;;10.52;6.35;;;;;;;20.26;36.66;102206.41;5075963;28;20094;-65
2022/03/03 11:22:05;;;;;;;9.88;6.63;;;;;;;20.26;36.59;102206.41;5069604;28;20407;-65